sensor_id;sensor_type;location;lat;lon;timestamp;temperature;humidity
30304;DHT22;17112;48.636;10.152;2022-08-25T00:01:36;20.00;60.20
30304;DHT22;17112;48.636;10.152;2022-08-25T00:04:06;19.90;60.50
30304;DHT22;17112;48.636;10.152;2022-08-25T00:06:32;19.90;60.20
30304;DHT22;17112;48.636;10.152;2022-08-25T00:08:58;19.90;60.40
30304;DHT22;17112;48.636;10.152;2022-08-25T00:11:27;19.80;60.70
30304;DHT22;17112;48.636;10.152;2022-08-25T00:13:58;19.80;61.00
30304;DHT22;17112;48.636;10.152;2022-08-25T00:16:25;19.80;61.10
30304;DHT22;17112;48.636;10.152;2022-08-25T00:18:54;19.70;60.80
30304;DHT22;17112;48.636;10.152;2022-08-25T00:21:22;19.70;61.20
30304;DHT22;17112;48.636;10.152;2022-08-25T00:23:49;19.70;61.20
30304;DHT22;17112;48.636;10.152;2022-08-25T00:26:15;19.70;61.20
30304;DHT22;17112;48.636;10.152;2022-08-25T00:28:42;19.60;61.10
30304;DHT22;17112;48.636;10.152;2022-08-25T00:31:14;19.60;61.10
30304;DHT22;17112;48.636;10.152;2022-08-25T00:33:41;19.60;61.80
30304;DHT22;17112;48.636;10.152;2022-08-25T00:36:07;19.60;61.50
30304;DHT22;17112;48.636;10.152;2022-08-25T00:38:40;19.60;61.70
30304;DHT22;17112;48.636;10.152;2022-08-25T00:41:07;19.50;61.60
30304;DHT22;17112;48.636;10.152;2022-08-25T00:43:46;19.50;61.70
30304;DHT22;17112;48.636;10.152;2022-08-25T00:46:16;19.50;63.00
30304;DHT22;17112;48.636;10.152;2022-08-25T00:48:44;19.50;61.90
30304;DHT22;17112;48.636;10.152;2022-08-25T00:51:14;19.40;62.00
30304;DHT22;17112;48.636;10.152;2022-08-25T00:53:41;19.40;61.90
30304;DHT22;17112;48.636;10.152;2022-08-25T00:56:07;19.40;61.90
30304;DHT22;17112;48.636;10.152;2022-08-25T00:58:34;19.40;62.00
30304;DHT22;17112;48.636;10.152;2022-08-25T01:01:01;19.30;62.30
30304;DHT22;17112;48.636;10.152;2022-08-25T01:03:29;19.40;62.30
30304;DHT22;17112;48.636;10.152;2022-08-25T01:05:58;19.30;63.10
30304;DHT22;17112;48.636;10.152;2022-08-25T01:08:27;19.30;62.40
30304;DHT22;17112;48.636;10.152;2022-08-25T01:10:54;19.30;62.70
30304;DHT22;17112;48.636;10.152;2022-08-25T01:13:38;19.20;62.60
30304;DHT22;17112;48.636;10.152;2022-08-25T01:16:04;19.20;63.80
30304;DHT22;17112;48.636;10.152;2022-08-25T01:18:52;19.20;62.70
30304;DHT22;17112;48.636;10.152;2022-08-25T01:21:20;19.20;63.60
30304;DHT22;17112;48.636;10.152;2022-08-25T01:23:48;19.20;62.60
30304;DHT22;17112;48.636;10.152;2022-08-25T01:28:41;19.20;62.80
30304;DHT22;17112;48.636;10.152;2022-08-25T01:31:28;19.10;62.90
30304;DHT22;17112;48.636;10.152;2022-08-25T01:33:55;19.10;62.90
30304;DHT22;17112;48.636;10.152;2022-08-25T01:36:21;19.10;63.10
30304;DHT22;17112;48.636;10.152;2022-08-25T01:38:48;19.00;63.30
30304;DHT22;17112;48.636;10.152;2022-08-25T01:41:18;19.00;63.50
30304;DHT22;17112;48.636;10.152;2022-08-25T01:43:46;19.00;63.80
30304;DHT22;17112;48.636;10.152;2022-08-25T01:46:12;19.00;63.60
30304;DHT22;17112;48.636;10.152;2022-08-25T01:48:38;19.00;63.60
30304;DHT22;17112;48.636;10.152;2022-08-25T01:51:04;19.00;63.80
30304;DHT22;17112;48.636;10.152;2022-08-25T01:53:30;18.90;63.70
30304;DHT22;17112;48.636;10.152;2022-08-25T01:55:56;18.90;63.70
30304;DHT22;17112;48.636;10.152;2022-08-25T01:58:34;18.90;63.70
30304;DHT22;17112;48.636;10.152;2022-08-25T02:01:03;18.90;64.10
30304;DHT22;17112;48.636;10.152;2022-08-25T02:03:29;18.90;64.00
30304;DHT22;17112;48.636;10.152;2022-08-25T02:05:57;18.90;64.10
30304;DHT22;17112;48.636;10.152;2022-08-25T02:08:23;18.90;64.10
30304;DHT22;17112;48.636;10.152;2022-08-25T02:10:50;18.80;64.20
30304;DHT22;17112;48.636;10.152;2022-08-25T02:13:16;18.80;64.30
30304;DHT22;17112;48.636;10.152;2022-08-25T02:15:44;18.80;64.50
30304;DHT22;17112;48.636;10.152;2022-08-25T02:18:10;18.80;64.60
30304;DHT22;17112;48.636;10.152;2022-08-25T02:20:36;18.80;64.40
30304;DHT22;17112;48.636;10.152;2022-08-25T02:23:02;18.80;64.40
30304;DHT22;17112;48.636;10.152;2022-08-25T02:25:29;18.80;64.50
30304;DHT22;17112;48.636;10.152;2022-08-25T02:27:55;18.70;64.50
30304;DHT22;17112;48.636;10.152;2022-08-25T02:30:21;18.70;64.50
30304;DHT22;17112;48.636;10.152;2022-08-25T02:32:46;18.70;64.30
30304;DHT22;17112;48.636;10.152;2022-08-25T02:35:12;18.70;64.40
30304;DHT22;17112;48.636;10.152;2022-08-25T02:37:38;18.70;64.50
30304;DHT22;17112;48.636;10.152;2022-08-25T02:40:04;18.70;64.60
30304;DHT22;17112;48.636;10.152;2022-08-25T02:42:30;18.60;64.50
30304;DHT22;17112;48.636;10.152;2022-08-25T02:44:56;18.60;64.60
30304;DHT22;17112;48.636;10.152;2022-08-25T02:47:22;18.60;64.70
30304;DHT22;17112;48.636;10.152;2022-08-25T02:49:47;18.60;64.70
30304;DHT22;17112;48.636;10.152;2022-08-25T02:52:14;18.60;64.60
30304;DHT22;17112;48.636;10.152;2022-08-25T02:54:41;18.60;64.80
30304;DHT22;17112;48.636;10.152;2022-08-25T02:57:07;18.50;64.80
30304;DHT22;17112;48.636;10.152;2022-08-25T02:59:34;18.50;64.80
30304;DHT22;17112;48.636;10.152;2022-08-25T03:02:00;18.50;65.00
30304;DHT22;17112;48.636;10.152;2022-08-25T03:04:26;18.50;65.10
30304;DHT22;17112;48.636;10.152;2022-08-25T03:06:53;18.50;65.10
30304;DHT22;17112;48.636;10.152;2022-08-25T03:09:18;18.40;65.00
30304;DHT22;17112;48.636;10.152;2022-08-25T03:11:44;18.40;65.00
30304;DHT22;17112;48.636;10.152;2022-08-25T03:14:11;18.40;65.20
30304;DHT22;17112;48.636;10.152;2022-08-25T03:16:37;18.40;65.20
30304;DHT22;17112;48.636;10.152;2022-08-25T03:19:03;18.40;65.20
30304;DHT22;17112;48.636;10.152;2022-08-25T03:21:29;18.30;65.30
30304;DHT22;17112;48.636;10.152;2022-08-25T03:23:57;18.30;65.30
30304;DHT22;17112;48.636;10.152;2022-08-25T03:26:23;18.30;65.50
30304;DHT22;17112;48.636;10.152;2022-08-25T03:29:08;18.30;65.50
30304;DHT22;17112;48.636;10.152;2022-08-25T03:31:35;18.30;65.40
30304;DHT22;17112;48.636;10.152;2022-08-25T03:34:01;18.30;65.40
30304;DHT22;17112;48.636;10.152;2022-08-25T03:36:27;18.30;65.50
30304;DHT22;17112;48.636;10.152;2022-08-25T03:38:53;18.30;65.60
30304;DHT22;17112;48.636;10.152;2022-08-25T03:41:27;18.20;65.60
30304;DHT22;17112;48.636;10.152;2022-08-25T03:43:53;18.20;66.30
30304;DHT22;17112;48.636;10.152;2022-08-25T03:46:31;18.30;65.60
30304;DHT22;17112;48.636;10.152;2022-08-25T03:48:59;18.20;66.30
30304;DHT22;17112;48.636;10.152;2022-08-25T03:51:34;18.20;65.70
30304;DHT22;17112;48.636;10.152;2022-08-25T03:54:01;18.10;66.00
30304;DHT22;17112;48.636;10.152;2022-08-25T03:56:27;18.10;66.10
30304;DHT22;17112;48.636;10.152;2022-08-25T03:58:54;18.10;66.20
30304;DHT22;17112;48.636;10.152;2022-08-25T04:01:20;18.10;66.90
30304;DHT22;17112;48.636;10.152;2022-08-25T04:03:46;18.10;66.30
30304;DHT22;17112;48.636;10.152;2022-08-25T04:06:14;18.10;66.30
30304;DHT22;17112;48.636;10.152;2022-08-25T04:08:40;18.10;66.30
30304;DHT22;17112;48.636;10.152;2022-08-25T04:11:13;18.00;66.20
30304;DHT22;17112;48.636;10.152;2022-08-25T04:13:39;18.00;66.50
30304;DHT22;17112;48.636;10.152;2022-08-25T04:20:01;18.00;66.40
30304;DHT22;17112;48.636;10.152;2022-08-25T04:22:28;18.00;66.00
30304;DHT22;17112;48.636;10.152;2022-08-25T04:24:56;18.00;66.40
30304;DHT22;17112;48.636;10.152;2022-08-25T04:27:22;17.90;66.50
30304;DHT22;17112;48.636;10.152;2022-08-25T04:29:48;17.90;66.70
30304;DHT22;17112;48.636;10.152;2022-08-25T04:32:13;17.90;66.80
30304;DHT22;17112;48.636;10.152;2022-08-25T04:34:39;17.90;66.90
30304;DHT22;17112;48.636;10.152;2022-08-25T04:37:05;17.90;66.90
30304;DHT22;17112;48.636;10.152;2022-08-25T04:39:32;17.90;66.90
30304;DHT22;17112;48.636;10.152;2022-08-25T04:41:57;17.90;66.90
30304;DHT22;17112;48.636;10.152;2022-08-25T04:44:24;17.90;67.00
30304;DHT22;17112;48.636;10.152;2022-08-25T04:46:50;17.90;67.10
30304;DHT22;17112;48.636;10.152;2022-08-25T04:49:16;17.90;67.20
30304;DHT22;17112;48.636;10.152;2022-08-25T04:51:42;17.90;67.20
30304;DHT22;17112;48.636;10.152;2022-08-25T04:54:13;17.90;67.30
30304;DHT22;17112;48.636;10.152;2022-08-25T04:56:41;17.90;67.50
30304;DHT22;17112;48.636;10.152;2022-08-25T04:59:10;17.90;67.90
30304;DHT22;17112;48.636;10.152;2022-08-25T05:01:37;17.90;67.30
30304;DHT22;17112;48.636;10.152;2022-08-25T05:04:04;17.90;67.20
30304;DHT22;17112;48.636;10.152;2022-08-25T05:06:31;18.00;67.70
30304;DHT22;17112;48.636;10.152;2022-08-25T05:08:57;18.00;67.70
30304;DHT22;17112;48.636;10.152;2022-08-25T05:11:25;18.00;67.40
30304;DHT22;17112;48.636;10.152;2022-08-25T05:13:53;18.10;67.60
30304;DHT22;17112;48.636;10.152;2022-08-25T05:16:20;18.10;67.80
30304;DHT22;17112;48.636;10.152;2022-08-25T05:18:46;18.20;67.80
30304;DHT22;17112;48.636;10.152;2022-08-25T05:21:18;18.20;67.80
30304;DHT22;17112;48.636;10.152;2022-08-25T05:23:44;18.30;68.30
30304;DHT22;17112;48.636;10.152;2022-08-25T05:26:21;18.40;68.20
30304;DHT22;17112;48.636;10.152;2022-08-25T05:28:49;18.40;68.70
30304;DHT22;17112;48.636;10.152;2022-08-25T05:31:15;18.50;68.30
30304;DHT22;17112;48.636;10.152;2022-08-25T05:33:41;18.60;68.20
30304;DHT22;17112;48.636;10.152;2022-08-25T05:36:09;18.70;68.20
30304;DHT22;17112;48.636;10.152;2022-08-25T05:38:36;18.80;68.10
30304;DHT22;17112;48.636;10.152;2022-08-25T05:41:06;18.90;67.90
30304;DHT22;17112;48.636;10.152;2022-08-25T05:43:36;19.00;68.00
30304;DHT22;17112;48.636;10.152;2022-08-25T05:46:04;19.10;67.90
30304;DHT22;17112;48.636;10.152;2022-08-25T05:48:30;19.20;67.80
30304;DHT22;17112;48.636;10.152;2022-08-25T05:50:58;19.30;67.80
30304;DHT22;17112;48.636;10.152;2022-08-25T05:53:26;19.40;67.80
30304;DHT22;17112;48.636;10.152;2022-08-25T05:55:54;19.50;67.50
30304;DHT22;17112;48.636;10.152;2022-08-25T05:58:20;19.60;67.20
30304;DHT22;17112;48.636;10.152;2022-08-25T06:00:46;19.70;67.10
30304;DHT22;17112;48.636;10.152;2022-08-25T06:03:12;19.80;67.00
30304;DHT22;17112;48.636;10.152;2022-08-25T06:05:38;19.90;66.80
30304;DHT22;17112;48.636;10.152;2022-08-25T06:08:04;20.00;66.70
30304;DHT22;17112;48.636;10.152;2022-08-25T06:10:29;20.10;66.60
30304;DHT22;17112;48.636;10.152;2022-08-25T06:12:55;20.20;66.50
30304;DHT22;17112;48.636;10.152;2022-08-25T06:15:23;20.40;66.40
30304;DHT22;17112;48.636;10.152;2022-08-25T06:17:49;20.40;66.30
30304;DHT22;17112;48.636;10.152;2022-08-25T06:20:20;20.60;66.10
30304;DHT22;17112;48.636;10.152;2022-08-25T06:22:46;20.70;66.20
30304;DHT22;17112;48.636;10.152;2022-08-25T06:25:14;20.90;66.00
30304;DHT22;17112;48.636;10.152;2022-08-25T06:27:40;21.00;65.90
30304;DHT22;17112;48.636;10.152;2022-08-25T06:30:07;21.10;65.90
30304;DHT22;17112;48.636;10.152;2022-08-25T06:32:35;21.30;66.10
30304;DHT22;17112;48.636;10.152;2022-08-25T06:35:03;21.40;65.90
30304;DHT22;17112;48.636;10.152;2022-08-25T06:37:29;21.60;65.70
30304;DHT22;17112;48.636;10.152;2022-08-25T06:39:55;21.70;65.70
30304;DHT22;17112;48.636;10.152;2022-08-25T06:42:21;21.90;65.50
30304;DHT22;17112;48.636;10.152;2022-08-25T06:44:46;22.00;65.30
30304;DHT22;17112;48.636;10.152;2022-08-25T06:47:12;22.10;65.30
30304;DHT22;17112;48.636;10.152;2022-08-25T06:49:41;22.30;65.10
30304;DHT22;17112;48.636;10.152;2022-08-25T06:52:07;22.40;64.80
30304;DHT22;17112;48.636;10.152;2022-08-25T06:54:33;22.50;64.60
30304;DHT22;17112;48.636;10.152;2022-08-25T06:56:59;22.70;64.50
30304;DHT22;17112;48.636;10.152;2022-08-25T06:59:25;22.80;64.20
30304;DHT22;17112;48.636;10.152;2022-08-25T07:01:51;22.90;64.10
30304;DHT22;17112;48.636;10.152;2022-08-25T07:04:17;23.10;64.10
30304;DHT22;17112;48.636;10.152;2022-08-25T07:06:43;23.20;63.80
30304;DHT22;17112;48.636;10.152;2022-08-25T07:09:10;23.30;63.70
30304;DHT22;17112;48.636;10.152;2022-08-25T07:11:41;23.50;63.50
30304;DHT22;17112;48.636;10.152;2022-08-25T07:14:08;23.60;63.00
30304;DHT22;17112;48.636;10.152;2022-08-25T07:16:36;23.80;62.70
30304;DHT22;17112;48.636;10.152;2022-08-25T07:19:03;23.80;62.50
30304;DHT22;17112;48.636;10.152;2022-08-25T07:21:31;24.00;62.20
30304;DHT22;17112;48.636;10.152;2022-08-25T07:23:58;24.00;61.80
30304;DHT22;17112;48.636;10.152;2022-08-25T07:26:27;24.20;61.40
30304;DHT22;17112;48.636;10.152;2022-08-25T07:28:54;24.30;61.40
30304;DHT22;17112;48.636;10.152;2022-08-25T07:31:20;24.30;61.40
30304;DHT22;17112;48.636;10.152;2022-08-25T07:33:46;24.50;61.40
30304;DHT22;17112;48.636;10.152;2022-08-25T07:36:38;24.60;61.20
30304;DHT22;17112;48.636;10.152;2022-08-25T07:39:04;24.70;60.70
30304;DHT22;17112;48.636;10.152;2022-08-25T07:41:31;24.80;60.50
30304;DHT22;17112;48.636;10.152;2022-08-25T07:43:59;25.00;60.10
30304;DHT22;17112;48.636;10.152;2022-08-25T07:46:24;25.00;60.00
30304;DHT22;17112;48.636;10.152;2022-08-25T07:48:50;25.10;60.10
30304;DHT22;17112;48.636;10.152;2022-08-25T07:51:16;25.20;59.70
30304;DHT22;17112;48.636;10.152;2022-08-25T07:53:42;25.30;59.50
30304;DHT22;17112;48.636;10.152;2022-08-25T07:56:12;25.40;59.60
30304;DHT22;17112;48.636;10.152;2022-08-25T07:58:39;25.60;59.30
30304;DHT22;17112;48.636;10.152;2022-08-25T08:01:05;25.70;59.30
30304;DHT22;17112;48.636;10.152;2022-08-25T08:03:31;25.80;58.90
30304;DHT22;17112;48.636;10.152;2022-08-25T08:05:59;25.80;58.70
30304;DHT22;17112;48.636;10.152;2022-08-25T08:08:26;25.90;58.50
30304;DHT22;17112;48.636;10.152;2022-08-25T08:10:52;26.00;58.50
30304;DHT22;17112;48.636;10.152;2022-08-25T08:13:17;26.10;58.10
30304;DHT22;17112;48.636;10.152;2022-08-25T08:15:44;26.20;58.00
30304;DHT22;17112;48.636;10.152;2022-08-25T08:18:10;26.20;57.70
30304;DHT22;17112;48.636;10.152;2022-08-25T08:20:36;26.30;57.70
30304;DHT22;17112;48.636;10.152;2022-08-25T08:23:02;26.40;57.50
30304;DHT22;17112;48.636;10.152;2022-08-25T08:25:28;26.50;57.30
30304;DHT22;17112;48.636;10.152;2022-08-25T08:27:55;26.50;56.70
30304;DHT22;17112;48.636;10.152;2022-08-25T08:30:21;26.50;56.90
30304;DHT22;17112;48.636;10.152;2022-08-25T08:32:47;26.60;56.70
30304;DHT22;17112;48.636;10.152;2022-08-25T08:35:15;26.70;56.70
30304;DHT22;17112;48.636;10.152;2022-08-25T08:37:44;26.80;56.70
30304;DHT22;17112;48.636;10.152;2022-08-25T08:40:11;26.80;56.20
30304;DHT22;17112;48.636;10.152;2022-08-25T08:45:31;27.10;56.30
30304;DHT22;17112;48.636;10.152;2022-08-25T08:56:43;27.50;54.80
30304;DHT22;17112;48.636;10.152;2022-08-25T08:59:23;27.50;54.70
30304;DHT22;17112;48.636;10.152;2022-08-25T09:01:51;27.60;54.30
30304;DHT22;17112;48.636;10.152;2022-08-25T09:04:31;27.70;54.40
30304;DHT22;17112;48.636;10.152;2022-08-25T09:06:58;27.70;54.10
30304;DHT22;17112;48.636;10.152;2022-08-25T09:09:28;27.80;53.90
30304;DHT22;17112;48.636;10.152;2022-08-25T09:15:02;27.90;53.70
30304;DHT22;17112;48.636;10.152;2022-08-25T09:18:10;28.00;53.50
30304;DHT22;17112;48.636;10.152;2022-08-25T09:20:47;28.10;52.70
30304;DHT22;17112;48.636;10.152;2022-08-25T09:23:33;28.20;53.20
30304;DHT22;17112;48.636;10.152;2022-08-25T09:31:16;28.30;53.40
30304;DHT22;17112;48.636;10.152;2022-08-25T09:33:43;28.40;53.10
30304;DHT22;17112;48.636;10.152;2022-08-25T09:36:09;28.40;52.80
30304;DHT22;17112;48.636;10.152;2022-08-25T09:38:35;28.50;53.20
30304;DHT22;17112;48.636;10.152;2022-08-25T09:41:01;28.50;52.80
30304;DHT22;17112;48.636;10.152;2022-08-25T09:43:50;28.60;52.60
30304;DHT22;17112;48.636;10.152;2022-08-25T09:46:23;28.70;52.40
30304;DHT22;17112;48.636;10.152;2022-08-25T09:48:52;28.80;52.10
30304;DHT22;17112;48.636;10.152;2022-08-25T09:53:51;29.00;52.10
30304;DHT22;17112;48.636;10.152;2022-08-25T09:56:24;29.00;51.80
30304;DHT22;17112;48.636;10.152;2022-08-25T09:58:50;29.00;51.10
30304;DHT22;17112;48.636;10.152;2022-08-25T10:01:18;29.10;51.90
30304;DHT22;17112;48.636;10.152;2022-08-25T10:03:58;29.20;52.00
30304;DHT22;17112;48.636;10.152;2022-08-25T10:06:28;29.20;51.70
30304;DHT22;17112;48.636;10.152;2022-08-25T10:09:03;29.40;51.50
30304;DHT22;17112;48.636;10.152;2022-08-25T10:11:40;29.40;50.50
30304;DHT22;17112;48.636;10.152;2022-08-25T10:16:32;29.50;50.70
30304;DHT22;17112;48.636;10.152;2022-08-25T10:19:08;29.50;50.50
30304;DHT22;17112;48.636;10.152;2022-08-25T10:21:36;29.50;49.50
30304;DHT22;17112;48.636;10.152;2022-08-25T10:24:03;29.60;50.00
30304;DHT22;17112;48.636;10.152;2022-08-25T10:34:54;29.80;49.80
30304;DHT22;17112;48.636;10.152;2022-08-25T10:40:46;30.00;48.90
30304;DHT22;17112;48.636;10.152;2022-08-25T10:43:32;30.10;48.90
30304;DHT22;17112;48.636;10.152;2022-08-25T10:46:13;30.10;48.90
30304;DHT22;17112;48.636;10.152;2022-08-25T10:53:56;30.40;47.40
30304;DHT22;17112;48.636;10.152;2022-08-25T10:56:49;30.40;48.10
30304;DHT22;17112;48.636;10.152;2022-08-25T11:04:45;30.60;48.30
30304;DHT22;17112;48.636;10.152;2022-08-25T11:07:36;30.70;47.60
30304;DHT22;17112;48.636;10.152;2022-08-25T11:10:10;30.80;47.30
30304;DHT22;17112;48.636;10.152;2022-08-25T11:12:42;30.80;46.80
30304;DHT22;17112;48.636;10.152;2022-08-25T11:15:19;30.90;47.60
30304;DHT22;17112;48.636;10.152;2022-08-25T11:23:17;31.10;46.90
30304;DHT22;17112;48.636;10.152;2022-08-25T11:25:50;31.20;46.20
30304;DHT22;17112;48.636;10.152;2022-08-25T11:28:30;31.20;46.30
30304;DHT22;17112;48.636;10.152;2022-08-25T11:30:59;31.20;46.30
30304;DHT22;17112;48.636;10.152;2022-08-25T11:33:27;31.30;46.60
30304;DHT22;17112;48.636;10.152;2022-08-25T11:35:58;31.30;46.10
30304;DHT22;17112;48.636;10.152;2022-08-25T11:47:34;31.70;45.00
30304;DHT22;17112;48.636;10.152;2022-08-25T11:50:07;31.80;44.50
30304;DHT22;17112;48.636;10.152;2022-08-25T11:57:43;31.60;45.30
30304;DHT22;17112;48.636;10.152;2022-08-25T12:02:59;31.60;44.70
30304;DHT22;17112;48.636;10.152;2022-08-25T12:08:01;31.60;44.70
30304;DHT22;17112;48.636;10.152;2022-08-25T12:13:49;31.50;43.70
30304;DHT22;17112;48.636;10.152;2022-08-25T12:16:37;31.40;44.20
30304;DHT22;17112;48.636;10.152;2022-08-25T12:21:54;31.30;44.30
30304;DHT22;17112;48.636;10.152;2022-08-25T12:27:21;31.50;44.90
30304;DHT22;17112;48.636;10.152;2022-08-25T12:36:01;31.80;44.30
30304;DHT22;17112;48.636;10.152;2022-08-25T12:38:29;31.80;42.90
30304;DHT22;17112;48.636;10.152;2022-08-25T12:41:07;31.80;43.40
30304;DHT22;17112;48.636;10.152;2022-08-25T12:43:38;31.70;44.10
30304;DHT22;17112;48.636;10.152;2022-08-25T12:59:51;31.80;42.40
30304;DHT22;17112;48.636;10.152;2022-08-25T13:14:01;32.60;41.00
30304;DHT22;17112;48.636;10.152;2022-08-25T13:16:22;32.80;40.90
30304;DHT22;17112;48.636;10.152;2022-08-25T13:18:48;33.00;42.20
30304;DHT22;17112;48.636;10.152;2022-08-25T13:21:32;33.10;41.20
30304;DHT22;17112;48.636;10.152;2022-08-25T13:24:04;33.30;40.80
30304;DHT22;17112;48.636;10.152;2022-08-25T13:26:33;33.40;40.50
30304;DHT22;17112;48.636;10.152;2022-08-25T13:30:15;33.50;39.30
30304;DHT22;17112;48.636;10.152;2022-08-25T13:32:07;33.60;39.50
30304;DHT22;17112;48.636;10.152;2022-08-25T13:34:38;33.70;39.70
30304;DHT22;17112;48.636;10.152;2022-08-25T13:40:25;33.70;38.80
30304;DHT22;17112;48.636;10.152;2022-08-25T13:43:05;33.60;39.40
30304;DHT22;17112;48.636;10.152;2022-08-25T13:45:36;33.70;39.70
30304;DHT22;17112;48.636;10.152;2022-08-25T13:48:02;33.70;38.90
30304;DHT22;17112;48.636;10.152;2022-08-25T13:50:36;33.80;39.50
30304;DHT22;17112;48.636;10.152;2022-08-25T13:53:13;33.80;38.00
30304;DHT22;17112;48.636;10.152;2022-08-25T13:58:16;34.10;39.10
30304;DHT22;17112;48.636;10.152;2022-08-25T14:01:08;34.30;39.20
30304;DHT22;17112;48.636;10.152;2022-08-25T14:03:40;34.40;38.60
30304;DHT22;17112;48.636;10.152;2022-08-25T14:08:45;34.50;39.10
30304;DHT22;17112;48.636;10.152;2022-08-25T14:13:37;34.80;38.50
30304;DHT22;17112;48.636;10.152;2022-08-25T14:16:22;34.90;37.80
30304;DHT22;17112;48.636;10.152;2022-08-25T14:18:51;34.80;36.80
30304;DHT22;17112;48.636;10.152;2022-08-25T14:21:19;34.80;37.00
30304;DHT22;17112;48.636;10.152;2022-08-25T14:23:46;34.70;37.20
30304;DHT22;17112;48.636;10.152;2022-08-25T14:26:12;34.60;36.90
30304;DHT22;17112;48.636;10.152;2022-08-25T14:28:38;34.50;37.00
30304;DHT22;17112;48.636;10.152;2022-08-25T14:31:10;34.40;36.80
30304;DHT22;17112;48.636;10.152;2022-08-25T14:33:42;34.20;36.80
30304;DHT22;17112;48.636;10.152;2022-08-25T14:36:08;34.10;37.00
30304;DHT22;17112;48.636;10.152;2022-08-25T14:38:35;34.10;37.10
30304;DHT22;17112;48.636;10.152;2022-08-25T14:41:04;34.10;36.70
30304;DHT22;17112;48.636;10.152;2022-08-25T14:43:30;34.10;37.20
30304;DHT22;17112;48.636;10.152;2022-08-25T14:45:55;34.20;37.80
30304;DHT22;17112;48.636;10.152;2022-08-25T14:48:35;34.30;37.80
30304;DHT22;17112;48.636;10.152;2022-08-25T14:51:03;34.50;37.80
30304;DHT22;17112;48.636;10.152;2022-08-25T14:53:29;34.70;37.50
30304;DHT22;17112;48.636;10.152;2022-08-25T14:55:55;35.00;37.50
30304;DHT22;17112;48.636;10.152;2022-08-25T14:58:22;35.20;37.00
30304;DHT22;17112;48.636;10.152;2022-08-25T15:00:49;35.50;36.70
30304;DHT22;17112;48.636;10.152;2022-08-25T15:03:18;35.80;35.90
30304;DHT22;17112;48.636;10.152;2022-08-25T15:05:46;35.90;35.60
30304;DHT22;17112;48.636;10.152;2022-08-25T15:08:12;36.10;35.10
30304;DHT22;17112;48.636;10.152;2022-08-25T15:10:56;36.10;34.70
30304;DHT22;17112;48.636;10.152;2022-08-25T15:13:22;36.10;34.60
30304;DHT22;17112;48.636;10.152;2022-08-25T15:15:49;36.00;34.00
30304;DHT22;17112;48.636;10.152;2022-08-25T15:18:16;35.90;34.40
30304;DHT22;17112;48.636;10.152;2022-08-25T15:20:41;35.90;34.10
30304;DHT22;17112;48.636;10.152;2022-08-25T15:23:07;35.80;34.40
30304;DHT22;17112;48.636;10.152;2022-08-25T15:25:34;35.80;34.40
30304;DHT22;17112;48.636;10.152;2022-08-25T15:28:03;35.90;34.50
30304;DHT22;17112;48.636;10.152;2022-08-25T15:30:29;36.00;34.60
30304;DHT22;17112;48.636;10.152;2022-08-25T15:32:55;36.10;34.70
30304;DHT22;17112;48.636;10.152;2022-08-25T15:35:21;36.30;34.50
30304;DHT22;17112;48.636;10.152;2022-08-25T15:37:46;36.40;34.20
30304;DHT22;17112;48.636;10.152;2022-08-25T15:40:13;36.50;33.80
30304;DHT22;17112;48.636;10.152;2022-08-25T15:42:39;36.70;33.40
30304;DHT22;17112;48.636;10.152;2022-08-25T15:45:05;36.80;33.10
30304;DHT22;17112;48.636;10.152;2022-08-25T15:47:31;37.00;32.30
30304;DHT22;17112;48.636;10.152;2022-08-25T15:50:09;37.10;32.70
30304;DHT22;17112;48.636;10.152;2022-08-25T15:52:35;37.20;32.40
30304;DHT22;17112;48.636;10.152;2022-08-25T15:55:02;37.10;32.50
30304;DHT22;17112;48.636;10.152;2022-08-25T15:57:27;37.20;32.20
30304;DHT22;17112;48.636;10.152;2022-08-25T15:59:53;37.20;32.10
30304;DHT22;17112;48.636;10.152;2022-08-25T16:02:20;37.30;32.50
30304;DHT22;17112;48.636;10.152;2022-08-25T16:04:45;37.30;31.90
30304;DHT22;17112;48.636;10.152;2022-08-25T16:07:11;37.40;31.70
30304;DHT22;17112;48.636;10.152;2022-08-25T16:09:37;37.50;31.20
30304;DHT22;17112;48.636;10.152;2022-08-25T16:12:03;37.40;31.40
30304;DHT22;17112;48.636;10.152;2022-08-25T16:14:29;37.50;31.20
30304;DHT22;17112;48.636;10.152;2022-08-25T16:16:54;37.40;30.90
30304;DHT22;17112;48.636;10.152;2022-08-25T16:19:20;37.50;31.20
30304;DHT22;17112;48.636;10.152;2022-08-25T16:21:46;37.50;30.80
30304;DHT22;17112;48.636;10.152;2022-08-25T16:24:11;37.50;30.80
30304;DHT22;17112;48.636;10.152;2022-08-25T16:26:37;37.60;30.90
30304;DHT22;17112;48.636;10.152;2022-08-25T16:29:07;37.60;31.00
30304;DHT22;17112;48.636;10.152;2022-08-25T16:31:33;37.60;30.40
30304;DHT22;17112;48.636;10.152;2022-08-25T16:33:59;37.70;30.30
30304;DHT22;17112;48.636;10.152;2022-08-25T16:36:26;37.60;30.60
30304;DHT22;17112;48.636;10.152;2022-08-25T16:38:52;37.60;30.40
30304;DHT22;17112;48.636;10.152;2022-08-25T16:41:23;37.60;30.10
30304;DHT22;17112;48.636;10.152;2022-08-25T16:43:50;37.50;29.90
30304;DHT22;17112;48.636;10.152;2022-08-25T16:46:17;37.40;30.00
30304;DHT22;17112;48.636;10.152;2022-08-25T16:48:44;37.30;30.00
30304;DHT22;17112;48.636;10.152;2022-08-25T16:51:16;37.20;30.50
30304;DHT22;17112;48.636;10.152;2022-08-25T16:53:42;37.10;30.50
30304;DHT22;17112;48.636;10.152;2022-08-25T16:56:27;37.00;31.30
30304;DHT22;17112;48.636;10.152;2022-08-25T16:58:54;36.90;31.00
30304;DHT22;17112;48.636;10.152;2022-08-25T17:01:22;36.80;30.70
30304;DHT22;17112;48.636;10.152;2022-08-25T17:03:53;36.50;30.70
30304;DHT22;17112;48.636;10.152;2022-08-25T17:06:21;36.20;31.30
30304;DHT22;17112;48.636;10.152;2022-08-25T17:08:47;35.90;31.70
30304;DHT22;17112;48.636;10.152;2022-08-25T17:11:19;35.60;31.90
30304;DHT22;17112;48.636;10.152;2022-08-25T17:13:48;35.30;32.00
30304;DHT22;17112;48.636;10.152;2022-08-25T17:16:14;34.90;32.50
30304;DHT22;17112;48.636;10.152;2022-08-25T17:18:41;34.60;32.70
30304;DHT22;17112;48.636;10.152;2022-08-25T17:21:09;34.20;33.10
30304;DHT22;17112;48.636;10.152;2022-08-25T17:23:38;33.90;33.40
30304;DHT22;17112;48.636;10.152;2022-08-25T17:26:05;33.60;33.80
30304;DHT22;17112;48.636;10.152;2022-08-25T17:28:32;33.30;34.20
30304;DHT22;17112;48.636;10.152;2022-08-25T17:30:58;33.00;34.70
30304;DHT22;17112;48.636;10.152;2022-08-25T17:33:24;32.80;35.60
30304;DHT22;17112;48.636;10.152;2022-08-25T17:35:52;32.60;36.00